sensor_id;sensor_type;location;lat;lon;timestamp;pressure;altitude;pressure_sealevel;temperature;humidity
30516;BME280;17297;54.022;10.760;2023-05-23T00:01:13;101239.41;;;18.58;70.83
30516;BME280;17297;54.022;10.760;2023-05-23T00:03:41;101236.81;;;18.52;70.99
30516;BME280;17297;54.022;10.760;2023-05-23T00:06:06;101235.63;;;18.48;71.17
30516;BME280;17297;54.022;10.760;2023-05-23T00:08:32;101220.31;;;18.46;71.33
30516;BME280;17297;54.022;10.760;2023-05-23T00:10:57;101227.91;;;18.44;71.18
30516;BME280;17297;54.022;10.760;2023-05-23T00:13:23;101225.41;;;18.43;71.07
30516;BME280;17297;54.022;10.760;2023-05-23T00:15:48;101221.84;;;18.42;71.26
30516;BME280;17297;54.022;10.760;2023-05-23T00:18:13;101225.66;;;18.41;71.29
30516;BME280;17297;54.022;10.760;2023-05-23T00:20:41;101214.16;;;18.39;71.25
30516;BME280;17297;54.022;10.760;2023-05-23T00:23:11;101229.41;;;18.40;71.19
30516;BME280;17297;54.022;10.760;2023-05-23T00:25:44;101226.13;;;18.38;71.22
30516;BME280;17297;54.022;10.760;2023-05-23T00:28:13;101217.69;;;18.40;71.41
30516;BME280;17297;54.022;10.760;2023-05-23T00:30:38;101219.34;;;18.41;71.46
30516;BME280;17297;54.022;10.760;2023-05-23T00:33:04;101228.59;;;18.40;71.42
30516;BME280;17297;54.022;10.760;2023-05-23T00:35:33;101225.06;;;18.39;71.47
30516;BME280;17297;54.022;10.760;2023-05-23T00:37:58;101223.41;;;18.38;71.33
30516;BME280;17297;54.022;10.760;2023-05-23T00:40:26;101219.59;;;18.39;71.26
30516;BME280;17297;54.022;10.760;2023-05-23T00:42:52;101215.81;;;18.40;71.42
30516;BME280;17297;54.022;10.760;2023-05-23T00:45:17;101214.75;;;18.41;71.37
30516;BME280;17297;54.022;10.760;2023-05-23T00:47:43;101219.97;;;18.43;71.59
30516;BME280;17297;54.022;10.760;2023-05-23T00:50:11;101221.84;;;18.42;71.63
30516;BME280;17297;54.022;10.760;2023-05-23T00:52:37;101222.47;;;18.44;71.77
30516;BME280;17297;54.022;10.760;2023-05-23T00:55:03;101220.31;;;18.46;71.50
30516;BME280;17297;54.022;10.760;2023-05-23T00:57:29;101218.41;;;18.47;71.67
30516;BME280;17297;54.022;10.760;2023-05-23T00:59:55;101217.38;;;18.48;71.67
30516;BME280;17297;54.022;10.760;2023-05-23T01:02:20;101214.66;;;18.48;71.65
30516;BME280;17297;54.022;10.760;2023-05-23T01:04:48;101214.66;;;18.48;71.53
30516;BME280;17297;54.022;10.760;2023-05-23T01:07:18;101218.19;;;18.49;71.50
30516;BME280;17297;54.022;10.760;2023-05-23T01:09:44;101216.31;;;18.49;71.51
30516;BME280;17297;54.022;10.760;2023-05-23T01:15:01;101206.22;;;18.50;71.53
30516;BME280;17297;54.022;10.760;2023-05-23T01:20:25;101199.75;;;18.51;71.83
30516;BME280;17297;54.022;10.760;2023-05-23T01:28:19;101202.22;;;18.52;71.76
30516;BME280;17297;54.022;10.760;2023-05-23T01:30:50;101204.13;;;18.52;72.00
30516;BME280;17297;54.022;10.760;2023-05-23T01:33:19;101199.75;;;18.51;71.67
30516;BME280;17297;54.022;10.760;2023-05-23T01:35:44;101204.13;;;18.52;71.87
30516;BME280;17297;54.022;10.760;2023-05-23T01:38:10;101196.75;;;18.52;71.88
30516;BME280;17297;54.022;10.760;2023-05-23T01:40:37;101192.97;;;18.53;71.73
30516;BME280;17297;54.022;10.760;2023-05-23T01:43:03;101196.53;;;18.54;72.12
30516;BME280;17297;54.022;10.760;2023-05-23T01:45:28;101191.91;;;18.54;71.85
30516;BME280;17297;54.022;10.760;2023-05-23T01:47:55;101190.25;;;18.53;71.91
30516;BME280;17297;54.022;10.760;2023-05-23T01:50:22;101187.53;;;18.53;72.10
30516;BME280;17297;54.022;10.760;2023-05-23T01:52:49;101180.19;;;18.54;71.86
30516;BME280;17297;54.022;10.760;2023-05-23T01:55:16;101185.66;;;18.54;71.88
30516;BME280;17297;54.022;10.760;2023-05-23T01:57:48;101178.06;;;18.56;72.10
30516;BME280;17297;54.022;10.760;2023-05-23T02:00:15;101180.78;;;18.56;72.18
30516;BME280;17297;54.022;10.760;2023-05-23T02:02:40;101179.13;;;18.55;72.12
30516;BME280;17297;54.022;10.760;2023-05-23T02:05:08;101172.59;;;18.56;72.23
30516;BME280;17297;54.022;10.760;2023-05-23T02:07:34;101176.16;;;18.56;72.01
30516;BME280;17297;54.022;10.760;2023-05-23T02:09:59;101174.28;;;18.57;72.03
30516;BME280;17297;54.022;10.760;2023-05-23T02:12:25;101178.88;;;18.56;71.96
30516;BME280;17297;54.022;10.760;2023-05-23T02:14:50;101176.41;;;18.55;71.95
30516;BME280;17297;54.022;10.760;2023-05-23T02:17:19;101181.03;;;18.54;72.16
30516;BME280;17297;54.022;10.760;2023-05-23T02:19:46;101176.63;;;18.53;71.85
30516;BME280;17297;54.022;10.760;2023-05-23T02:22:12;101173.06;;;18.53;72.18
30516;BME280;17297;54.022;10.760;2023-05-23T02:24:38;101185.03;;;18.52;72.26
30516;BME280;17297;54.022;10.760;2023-05-23T02:27:04;101176.88;;;18.52;72.23
30516;BME280;17297;54.022;10.760;2023-05-23T02:29:29;101181.50;;;18.51;72.23
30516;BME280;17297;54.022;10.760;2023-05-23T02:31:55;101182.53;;;18.50;72.22
30516;BME280;17297;54.022;10.760;2023-05-23T02:34:20;101189.88;;;18.50;72.25
30516;BME280;17297;54.022;10.760;2023-05-23T02:36:45;101189.06;;;18.49;71.95
30516;BME280;17297;54.022;10.760;2023-05-23T02:39:11;101191.78;;;18.49;71.94
30516;BME280;17297;54.022;10.760;2023-05-23T02:41:37;101188.47;;;18.47;72.26
30516;BME280;17297;54.022;10.760;2023-05-23T02:44:04;101191.19;;;18.47;72.20
30516;BME280;17297;54.022;10.760;2023-05-23T02:46:30;101188.47;;;18.47;72.29
30516;BME280;17297;54.022;10.760;2023-05-23T02:48:55;101192.88;;;18.48;72.11
30516;BME280;17297;54.022;10.760;2023-05-23T02:51:21;101182.19;;;18.46;71.98
30516;BME280;17297;54.022;10.760;2023-05-23T02:53:46;101179.47;;;18.46;72.26
30516;BME280;17297;54.022;10.760;2023-05-23T02:56:11;101180.28;;;18.47;72.35
30516;BME280;17297;54.022;10.760;2023-05-23T02:58:37;101179.47;;;18.46;72.40
30516;BME280;17297;54.022;10.760;2023-05-23T03:01:04;101193.91;;;18.47;72.15
30516;BME280;17297;54.022;10.760;2023-05-23T03:03:30;101193.91;;;18.47;72.28
30516;BME280;17297;54.022;10.760;2023-05-23T03:05:59;101190.25;;;18.41;72.04
30516;BME280;17297;54.022;10.760;2023-05-23T03:08:25;101190.72;;;18.38;71.94
30516;BME280;17297;54.022;10.760;2023-05-23T03:10:50;101183.00;;;18.35;72.23
30516;BME280;17297;54.022;10.760;2023-05-23T03:13:17;101189.16;;;18.31;72.27
30516;BME280;17297;54.022;10.760;2023-05-23T03:15:43;101194.22;;;18.27;71.99
30516;BME280;17297;54.022;10.760;2023-05-23T03:18:09;101192.44;;;18.21;71.98
30516;BME280;17297;54.022;10.760;2023-05-23T03:20:35;101194.19;;;18.15;72.25
30516;BME280;17297;54.022;10.760;2023-05-23T03:23:00;101196.34;;;18.13;72.21
30516;BME280;17297;54.022;10.760;2023-05-23T03:25:26;101195.94;;;18.10;72.21
30516;BME280;17297;54.022;10.760;2023-05-23T03:27:53;101190.97;;;18.07;72.42
30516;BME280;17297;54.022;10.760;2023-05-23T03:30:19;101187.66;;;18.05;72.16
30516;BME280;17297;54.022;10.760;2023-05-23T03:32:45;101194.16;;;18.04;72.29
30516;BME280;17297;54.022;10.760;2023-05-23T03:35:10;101192.75;;;18.01;72.44
30516;BME280;17297;54.022;10.760;2023-05-23T03:37:36;101189.41;;;17.99;72.30
30516;BME280;17297;54.022;10.760;2023-05-23T03:40:01;101194.63;;;18.00;72.33
30516;BME280;17297;54.022;10.760;2023-05-23T03:42:28;101195.47;;;18.01;72.45
30516;BME280;17297;54.022;10.760;2023-05-23T03:44:54;101186.44;;;18.00;72.54
30516;BME280;17297;54.022;10.760;2023-05-23T03:47:22;101192.75;;;18.01;72.42
30516;BME280;17297;54.022;10.760;2023-05-23T03:49:49;101191.31;;;17.98;72.17
30516;BME280;17297;54.022;10.760;2023-05-23T03:52:14;101184.69;;;17.94;72.29
30516;BME280;17297;54.022;10.760;2023-05-23T03:54:40;101177.56;;;17.93;72.38
30516;BME280;17297;54.022;10.760;2023-05-23T03:57:06;101180.28;;;17.93;72.29
30516;BME280;17297;54.022;10.760;2023-05-23T03:59:33;101178.38;;;17.94;72.26
30516;BME280;17297;54.022;10.760;2023-05-23T04:02:00;101167.75;;;17.92;72.33
30516;BME280;17297;54.022;10.760;2023-05-23T04:04:28;101171.53;;;17.91;72.03
30516;BME280;17297;54.022;10.760;2023-05-23T04:06:54;101172.81;;;17.89;71.94
30516;BME280;17297;54.022;10.760;2023-05-23T04:09:20;101167.38;;;17.89;72.19
30516;BME280;17297;54.022;10.760;2023-05-23T04:11:47;101171.13;;;17.88;71.99
30516;BME280;17297;54.022;10.760;2023-05-23T04:14:12;101166.56;;;17.88;71.95
30516;BME280;17297;54.022;10.760;2023-05-23T04:16:38;101162.41;;;17.86;71.88
30516;BME280;17297;54.022;10.760;2023-05-23T04:19:06;101169.75;;;17.85;71.91
30516;BME280;17297;54.022;10.760;2023-05-23T04:21:32;101162.63;;;17.84;72.04
30516;BME280;17297;54.022;10.760;2023-05-23T04:24:05;101158.25;;;17.83;72.12
30516;BME280;17297;54.022;10.760;2023-05-23T04:26:30;101159.88;;;17.84;72.03
30516;BME280;17297;54.022;10.760;2023-05-23T04:28:57;101165.34;;;17.84;72.30
30516;BME280;17297;54.022;10.760;2023-05-23T04:31:23;101158.00;;;17.85;72.22
30516;BME280;17297;54.022;10.760;2023-05-23T04:33:48;101158.59;;;17.87;72.13
30516;BME280;17297;54.022;10.760;2023-05-23T04:36:15;101156.72;;;17.87;72.27
30516;BME280;17297;54.022;10.760;2023-05-23T04:38:45;101156.03;;;17.92;72.17
30516;BME280;17297;54.022;10.760;2023-05-23T04:41:11;101167.63;;;17.99;72.31
30516;BME280;17297;54.022;10.760;2023-05-23T04:44:05;101157.72;;;18.05;72.36
30516;BME280;17297;54.022;10.760;2023-05-23T04:46:38;101159.72;;;18.09;72.53
30516;BME280;17297;54.022;10.760;2023-05-23T04:49:22;101156.91;;;18.16;72.18
30516;BME280;17297;54.022;10.760;2023-05-23T04:51:48;101159.75;;;18.21;72.28
30516;BME280;17297;54.022;10.760;2023-05-23T04:54:20;101152.78;;;18.25;72.51
30516;BME280;17297;54.022;10.760;2023-05-23T04:56:45;101147.72;;;18.29;72.41
30516;BME280;17297;54.022;10.760;2023-05-23T04:59:12;101147.00;;;18.33;72.37
30516;BME280;17297;54.022;10.760;2023-05-23T05:01:38;101151.97;;;18.36;72.48
30516;BME280;17297;54.022;10.760;2023-05-23T05:04:05;101143.34;;;18.39;72.38
30516;BME280;17297;54.022;10.760;2023-05-23T05:06:31;101147.50;;;18.42;72.18
30516;BME280;17297;54.022;10.760;2023-05-23T05:08:57;101138.84;;;18.45;72.23
30516;BME280;17297;54.022;10.760;2023-05-23T05:11:22;101150.09;;;18.49;72.40
30516;BME280;17297;54.022;10.760;2023-05-23T05:13:48;101149.63;;;18.52;72.62
30516;BME280;17297;54.022;10.760;2023-05-23T05:16:13;101147.25;;;18.55;72.32
30516;BME280;17297;54.022;10.760;2023-05-23T05:18:39;101145.72;;;18.59;72.44
30516;BME280;17297;54.022;10.760;2023-05-23T05:21:04;101148.81;;;18.63;72.40
30516;BME280;17297;54.022;10.760;2023-05-23T05:23:30;101148.09;;;18.67;72.39
30516;BME280;17297;54.022;10.760;2023-05-23T05:25:57;101149.53;;;18.70;72.42
30516;BME280;17297;54.022;10.760;2023-05-23T05:28:23;101153.44;;;18.74;72.61
30516;BME280;17297;54.022;10.760;2023-05-23T05:30:50;101156.53;;;18.78;72.69
30516;BME280;17297;54.022;10.760;2023-05-23T05:33:21;101155.00;;;18.82;72.41
30516;BME280;17297;54.022;10.760;2023-05-23T05:35:56;101156.66;;;18.83;72.62
30516;BME280;17297;54.022;10.760;2023-05-23T05:38:21;101162.47;;;18.86;72.36
30516;BME280;17297;54.022;10.760;2023-05-23T05:40:47;101157.00;;;18.86;72.41
30516;BME280;17297;54.022;10.760;2023-05-23T05:43:14;101162.22;;;18.88;72.57
30516;BME280;17297;54.022;10.760;2023-05-23T05:45:40;101164.09;;;18.87;72.19
30516;BME280;17297;54.022;10.760;2023-05-23T05:48:05;101165.19;;;18.86;72.36
30516;BME280;17297;54.022;10.760;2023-05-23T05:50:33;101158.09;;;18.85;72.01
30516;BME280;17297;54.022;10.760;2023-05-23T05:52:58;101169.81;;;18.86;72.31
30516;BME280;17297;54.022;10.760;2023-05-23T05:55:23;101163.75;;;18.84;72.13
30516;BME280;17297;54.022;10.760;2023-05-23T05:57:52;101176.56;;;18.83;71.99
30516;BME280;17297;54.022;10.760;2023-05-23T06:00:18;101172.19;;;18.82;72.29
30516;BME280;17297;54.022;10.760;2023-05-23T06:02:55;101170.75;;;18.80;72.30
30516;BME280;17297;54.022;10.760;2023-05-23T06:05:43;101166.38;;;18.79;72.12
30516;BME280;17297;54.022;10.760;2023-05-23T06:08:10;101171.22;;;18.77;72.19
30516;BME280;17297;54.022;10.760;2023-05-23T06:10:36;101172.53;;;18.74;72.06
30516;BME280;17297;54.022;10.760;2023-05-23T06:13:02;101170.06;;;18.73;72.17
30516;BME280;17297;54.022;10.760;2023-05-23T06:15:29;101174.03;;;18.70;72.22
30516;BME280;17297;54.022;10.760;2023-05-23T06:17:54;101184.94;;;18.70;72.12
30516;BME280;17297;54.022;10.760;2023-05-23T06:20:20;101178.06;;;18.67;72.09
30516;BME280;17297;54.022;10.760;2023-05-23T06:22:46;101179.16;;;18.66;72.25
30516;BME280;17297;54.022;10.760;2023-05-23T06:25:11;101179.97;;;18.67;72.22
30516;BME280;17297;54.022;10.760;2023-05-23T06:27:36;101193.59;;;18.67;72.34
30516;BME280;17297;54.022;10.760;2023-05-23T06:30:03;101187.31;;;18.66;72.34
30516;BME280;17297;54.022;10.760;2023-05-23T06:32:29;101190.03;;;18.66;72.61
30516;BME280;17297;54.022;10.760;2023-05-23T06:34:54;101193.81;;;18.65;72.42
30516;BME280;17297;54.022;10.760;2023-05-23T06:37:20;101199.88;;;18.67;72.63
30516;BME280;17297;54.022;10.760;2023-05-23T06:39:45;101196.31;;;18.67;72.50
30516;BME280;17297;54.022;10.760;2023-05-23T06:42:10;101208.03;;;18.67;72.74
30516;BME280;17297;54.022;10.760;2023-05-23T06:44:53;101216.22;;;18.67;72.72
30516;BME280;17297;54.022;10.760;2023-05-23T06:47:18;101215.38;;;18.67;72.77
30516;BME280;17297;54.022;10.760;2023-05-23T06:49:44;101215.13;;;18.68;72.58
30516;BME280;17297;54.022;10.760;2023-05-23T06:52:09;101224.38;;;18.67;72.57
30516;BME280;17297;54.022;10.760;2023-05-23T06:54:35;101225.22;;;18.68;72.74
30516;BME280;17297;54.022;10.760;2023-05-23T06:57:00;101225.22;;;18.68;72.69
30516;BME280;17297;54.022;10.760;2023-05-23T06:59:25;101230.91;;;18.66;72.86
30516;BME280;17297;54.022;10.760;2023-05-23T07:01:51;101237.19;;;18.67;72.94
30516;BME280;17297;54.022;10.760;2023-05-23T07:04:17;101234.47;;;18.67;72.59
30516;BME280;17297;54.022;10.760;2023-05-23T07:06:42;101236.38;;;18.66;72.81
30516;BME280;17297;54.022;10.760;2023-05-23T07:09:08;101232.22;;;18.64;72.82
30516;BME280;17297;54.022;10.760;2023-05-23T07:11:34;101231.84;;;18.60;72.54
30516;BME280;17297;54.022;10.760;2023-05-23T07:14:00;101233.97;;;18.58;72.81
30516;BME280;17297;54.022;10.760;2023-05-23T07:16:35;101233.38;;;18.56;72.59
30516;BME280;17297;54.022;10.760;2023-05-23T07:19:04;101234.44;;;18.55;72.76
30516;BME280;17297;54.022;10.760;2023-05-23T07:21:32;101231.09;;;18.53;72.49
30516;BME280;17297;54.022;10.760;2023-05-23T07:23:57;101231.34;;;18.52;72.65
30516;BME280;17297;54.022;10.760;2023-05-23T07:26:23;101234.28;;;18.50;72.71
30516;BME280;17297;54.022;10.760;2023-05-23T07:28:53;101238.34;;;18.48;72.50
30516;BME280;17297;54.022;10.760;2023-05-23T07:31:18;101245.09;;;18.45;72.31
30516;BME280;17297;54.022;10.760;2023-05-23T07:33:43;101243.41;;;18.44;72.63
30516;BME280;17297;54.022;10.760;2023-05-23T07:36:14;101250.16;;;18.41;72.26
30516;BME280;17297;54.022;10.760;2023-05-23T07:38:40;101248.97;;;18.37;72.37
30516;BME280;17297;54.022;10.760;2023-05-23T07:41:06;101253.81;;;18.35;72.22
30516;BME280;17297;54.022;10.760;2023-05-23T07:43:31;101251.78;;;18.31;71.86
30516;BME280;17297;54.022;10.760;2023-05-23T07:45:56;101258.16;;;18.24;71.92
30516;BME280;17297;54.022;10.760;2023-05-23T07:48:22;101252.34;;;18.21;71.75
30516;BME280;17297;54.022;10.760;2023-05-23T07:50:47;101256.59;;;18.17;71.92
30516;BME280;17297;54.022;10.760;2023-05-23T07:53:13;101262.25;;;18.15;71.72
30516;BME280;17297;54.022;10.760;2023-05-23T07:55:39;101263.53;;;18.13;71.61
30516;BME280;17297;54.022;10.760;2023-05-23T07:58:05;101258.09;;;18.13;71.68
30516;BME280;17297;54.022;10.760;2023-05-23T08:00:31;101262.50;;;18.14;71.48
30516;BME280;17297;54.022;10.760;2023-05-23T08:03:04;101266.28;;;18.13;71.63
30516;BME280;17297;54.022;10.760;2023-05-23T08:05:36;101269.84;;;18.13;71.51
30516;BME280;17297;54.022;10.760;2023-05-23T08:08:01;101266.88;;;18.15;71.47
30516;BME280;17297;54.022;10.760;2023-05-23T08:10:27;101276.69;;;18.16;71.38
30516;BME280;17297;54.022;10.760;2023-05-23T08:12:59;101278.13;;;18.18;71.60
30516;BME280;17297;54.022;10.760;2023-05-23T08:15:29;101279.81;;;18.19;71.55
30516;BME280;17297;54.022;10.760;2023-05-23T08:18:05;101283.94;;;18.22;71.45
30516;BME280;17297;54.022;10.760;2023-05-23T08:20:30;101278.28;;;18.23;71.44
30516;BME280;17297;54.022;10.760;2023-05-23T08:22:58;101287.91;;;18.26;71.69
30516;BME280;17297;54.022;10.760;2023-05-23T08:25:24;101287.44;;;18.29;71.45
30516;BME280;17297;54.022;10.760;2023-05-23T08:27:50;101284.00;;;18.34;71.48
30516;BME280;17297;54.022;10.760;2023-05-23T08:30:30;101282.72;;;18.36;71.59
30516;BME280;17297;54.022;10.760;2023-05-23T08:32:58;101284.34;;;18.37;71.45
30516;BME280;17297;54.022;10.760;2023-05-23T08:35:24;101282.25;;;18.39;71.33
30516;BME280;17297;54.022;10.760;2023-05-23T08:37:50;101289.97;;;18.42;71.27
30516;BME280;17297;54.022;10.760;2023-05-23T08:40:20;101293.50;;;18.43;71.09
30516;BME280;17297;54.022;10.760;2023-05-23T08:42:53;101300.84;;;18.42;70.87
30516;BME280;17297;54.022;10.760;2023-05-23T08:45:20;101306.75;;;18.39;70.60
30516;BME280;17297;54.022;10.760;2023-05-23T08:47:50;101305.78;;;18.34;70.23
30516;BME280;17297;54.022;10.760;2023-05-23T08:50:22;101308.97;;;18.31;70.35
30516;BME280;17297;54.022;10.760;2023-05-23T08:52:54;101317.84;;;18.26;69.88
30516;BME280;17297;54.022;10.760;2023-05-23T08:55:26;101311.19;;;18.22;70.07
30516;BME280;17297;54.022;10.760;2023-05-23T08:57:52;101319.81;;;18.19;70.02
30516;BME280;17297;54.022;10.760;2023-05-23T09:00:30;101321.94;;;18.17;69.90
30516;BME280;17297;54.022;10.760;2023-05-23T09:02:56;101316.97;;;18.14;70.07
30516;BME280;17297;54.022;10.760;2023-05-23T09:05:46;101327.22;;;18.12;69.90
30516;BME280;17297;54.022;10.760;2023-05-23T09:08:13;101326.63;;;18.10;69.86
30516;BME280;17297;54.022;10.760;2023-05-23T09:10:40;101331.69;;;18.06;69.70
30516;BME280;17297;54.022;10.760;2023-05-23T09:13:06;101329.44;;;18.03;69.50
30516;BME280;17297;54.022;10.760;2023-05-23T09:15:34;101339.75;;;18.01;69.42
30516;BME280;17297;54.022;10.760;2023-05-23T09:18:00;101345.41;;;17.99;69.36
30516;BME280;17297;54.022;10.760;2023-05-23T09:20:30;101355.91;;;17.96;69.65
30516;BME280;17297;54.022;10.760;2023-05-23T09:23:00;101364.78;;;17.91;69.20
30516;BME280;17297;54.022;10.760;2023-05-23T09:25:26;101367.09;;;17.88;69.32
30516;BME280;17297;54.022;10.760;2023-05-23T09:27:53;101365.28;;;17.82;69.03
30516;BME280;17297;54.022;10.760;2023-05-23T09:30:20;101364.28;;;17.76;69.12
30516;BME280;17297;54.022;10.760;2023-05-23T09:32:58;101365.19;;;17.70;69.14
30516;BME280;17297;54.022;10.760;2023-05-23T09:35:27;101369.63;;;17.64;68.93
30516;BME280;17297;54.022;10.760;2023-05-23T09:37:52;101366.97;;;17.58;68.81
30516;BME280;17297;54.022;10.760;2023-05-23T09:40:20;101365.72;;;17.53;69.05
30516;BME280;17297;54.022;10.760;2023-05-23T09:43:01;101368.69;;;17.52;69.24
30516;BME280;17297;54.022;10.760;2023-05-23T09:45:30;101366.19;;;17.50;69.13
30516;BME280;17297;54.022;10.760;2023-05-23T09:47:56;101369.13;;;17.49;69.14
30516;BME280;17297;54.022;10.760;2023-05-23T09:50:23;101371.84;;;17.49;69.30
30516;BME280;17297;54.022;10.760;2023-05-23T09:52:49;101373.50;;;17.50;69.48
30516;BME280;17297;54.022;10.760;2023-05-23T09:55:15;101372.25;;;17.52;69.42
30516;BME280;17297;54.022;10.760;2023-05-23T09:57:42;101370.97;;;17.55;69.68
30516;BME280;17297;54.022;10.760;2023-05-23T10:00:09;101379.75;;;17.57;69.88
30516;BME280;17297;54.022;10.760;2023-05-23T10:03:04;101369.25;;;17.61;69.86
30516;BME280;17297;54.022;10.760;2023-05-23T10:05:41;101368.19;;;17.62;69.95
30516;BME280;17297;54.022;10.760;2023-05-23T10:08:19;101397.28;;;17.61;69.97
30516;BME280;17297;54.022;10.760;2023-05-23T10:13:21;101392.50;;;17.57;69.75
30516;BME280;17297;54.022;10.760;2023-05-23T10:15:53;101394.63;;;17.54;69.68
30516;BME280;17297;54.022;10.760;2023-05-23T10:18:25;101401.34;;;17.52;69.86
30516;BME280;17297;54.022;10.760;2023-05-23T10:20:56;101405.31;;;17.49;69.67
30516;BME280;17297;54.022;10.760;2023-05-23T10:23:26;101413.09;;;17.46;69.53
30516;BME280;17297;54.022;10.760;2023-05-23T10:25:53;101423.59;;;17.42;69.44
30516;BME280;17297;54.022;10.760;2023-05-23T10:28:19;101416.91;;;17.38;69.50
30516;BME280;17297;54.022;10.760;2023-05-23T10:30:45;101421.13;;;17.34;69.53
30516;BME280;17297;54.022;10.760;2023-05-23T10:33:11;101422.41;;;17.31;69.52
30516;BME280;17297;54.022;10.760;2023-05-23T10:35:49;101425.56;;;17.28;69.64
30516;BME280;17297;54.022;10.760;2023-05-23T10:41:24;101434.03;;;17.20;69.46
30516;BME280;17297;54.022;10.760;2023-05-23T10:44:07;101440.09;;;17.16;69.45
30516;BME280;17297;54.022;10.760;2023-05-23T10:46:52;101434.28;;;17.12;69.42
30516;BME280;17297;54.022;10.760;2023-05-23T10:49:18;101448.31;;;17.09;69.24
30516;BME280;17297;54.022;10.760;2023-05-23T10:51:50;101447.28;;;17.03;69.37
30516;BME280;17297;54.022;10.760;2023-05-23T10:54:18;101454.84;;;17.01;69.29
30516;BME280;17297;54.022;10.760;2023-05-23T10:56:44;101460.47;;;17.00;69.45
30516;BME280;17297;54.022;10.760;2023-05-23T10:59:19;101459.91;;;16.98;69.35
30516;BME280;17297;54.022;10.760;2023-05-23T11:01:45;101460.09;;;16.96;69.42
30516;BME280;17297;54.022;10.760;2023-05-23T11:04:11;101463.03;;;16.95;69.38
30516;BME280;17297;54.022;10.760;2023-05-23T11:06:43;101469.50;;;16.94;69.26
30516;BME280;17297;54.022;10.760;2023-05-23T11:09:13;101462.63;;;16.91;69.36
30516;BME280;17297;54.022;10.760;2023-05-23T11:11:59;101464.50;;;16.91;69.45
30516;BME280;17297;54.022;10.760;2023-05-23T11:14:32;101471.00;;;16.90;69.23
30516;BME280;17297;54.022;10.760;2023-05-23T11:17:14;101470.19;;;16.89;69.27
30516;BME280;17297;54.022;10.760;2023-05-23T11:22:28;101486.09;;;16.85;69.21
30516;BME280;17297;54.022;10.760;2023-05-23T11:24:57;101481.69;;;16.84;69.02
30516;BME280;17297;54.022;10.760;2023-05-23T11:27:35;101480.84;;;16.84;69.42
30516;BME280;17297;54.022;10.760;2023-05-23T11:30:15;101487.34;;;16.83;69.39
30516;BME280;17297;54.022;10.760;2023-05-23T11:32:48;101492.97;;;16.81;69.12
30516;BME280;17297;54.022;10.760;2023-05-23T11:35:15;101492.38;;;16.79;69.08
30516;BME280;17297;54.022;10.760;2023-05-23T11:37:40;101495.94;;;16.80;69.28
30516;BME280;17297;54.022;10.760;2023-05-23T11:40:34;101496.75;;;16.80;69.29
30516;BME280;17297;54.022;10.760;2023-05-23T11:43:02;101494.03;;;16.80;69.38
30516;BME280;17297;54.022;10.760;2023-05-23T11:45:28;101495.50;;;16.83;69.25
30516;BME280;17297;54.022;10.760;2023-05-23T11:47:54;101487.13;;;16.84;69.29
30516;BME280;17297;54.022;10.760;2023-05-23T11:50:20;101491.28;;;16.87;69.27
30516;BME280;17297;54.022;10.760;2023-05-23T11:52:46;101498.63;;;16.87;68.99
30516;BME280;17297;54.022;10.760;2023-05-23T11:55:19;101490.47;;;16.87;68.98
30516;BME280;17297;54.022;10.760;2023-05-23T11:57:45;101504.25;;;16.85;69.04
30516;BME280;17297;54.022;10.760;2023-05-23T12:00:11;101503.22;;;16.86;68.90
30516;BME280;17297;54.022;10.760;2023-05-23T12:02:43;101498.81;;;16.85;68.85
30516;BME280;17297;54.022;10.760;2023-05-23T12:05:10;101508.41;;;16.88;68.98
30516;BME280;17297;54.022;10.760;2023-05-23T12:07:46;101501.53;;;16.92;69.13
30516;BME280;17297;54.022;10.760;2023-05-23T12:10:16;101499.38;;;17.00;69.13
30516;BME280;17297;54.022;10.760;2023-05-23T12:12:42;101503.06;;;17.13;69.16
30516;BME280;17297;54.022;10.760;2023-05-23T12:15:09;101502.16;;;17.25;69.17
30516;BME280;17297;54.022;10.760;2023-05-23T12:17:36;101507.72;;;17.37;69.10
30516;BME280;17297;54.022;10.760;2023-05-23T12:20:03;101510.19;;;17.45;68.96
30516;BME280;17297;54.022;10.760;2023-05-23T12:22:29;101519.56;;;17.49;68.67
30516;BME280;17297;54.022;10.760;2023-05-23T12:24:55;101509.31;;;17.51;68.59
30516;BME280;17297;54.022;10.760;2023-05-23T12:27:27;101514.75;;;17.51;68.39
30516;BME280;17297;54.022;10.760;2023-05-23T12:30:04;101521.03;;;17.52;68.34
30516;BME280;17297;54.022;10.760;2023-05-23T12:32:30;101524.56;;;17.52;68.16
30516;BME280;17297;54.022;10.760;2023-05-23T12:34:55;101518.06;;;17.53;68.27
30516;BME280;17297;54.022;10.760;2023-05-23T12:37:21;101526.19;;;17.60;68.33
30516;BME280;17297;54.022;10.760;2023-05-23T12:39:48;101526.16;;;17.67;68.18
30516;BME280;17297;54.022;10.760;2023-05-23T12:42:14;101527.34;;;17.71;68.21
30516;BME280;17297;54.022;10.760;2023-05-23T12:44:40;101527.75;;;17.74;67.64
30516;BME280;17297;54.022;10.760;2023-05-23T12:47:07;101532.97;;;17.76;67.67
30516;BME280;17297;54.022;10.760;2023-05-23T12:49:32;101536.31;;;17.78;67.36
30516;BME280;17297;54.022;10.760;2023-05-23T12:51:58;101532.56;;;17.79;67.26
30516;BME280;17297;54.022;10.760;2023-05-23T12:54:23;101542.56;;;17.85;67.06
30516;BME280;17297;54.022;10.760;2023-05-23T12:56:48;101541.88;;;17.90;66.69
30516;BME280;17297;54.022;10.760;2023-05-23T12:59:14;101541.25;;;17.94;66.66
30516;BME280;17297;54.022;10.760;2023-05-23T13:01:39;101549.56;;;17.99;66.21
30516;BME280;17297;54.022;10.760;2023-05-23T13:04:05;101554.53;;;18.03;66.09